createdAt,value
2017-08-20T00:00:53.020Z,10.55
2017-08-20T00:01:53.014Z,10.57
2017-08-20T00:02:53.309Z,10.52
2017-08-20T00:03:53.314Z,10.52
2017-08-20T00:04:53.290Z,10.49
2017-08-20T00:05:53.282Z,10.59
2017-08-20T00:06:52.956Z,10.51
2017-08-20T00:07:52.947Z,10.47
2017-08-20T00:08:52.638Z,10.49
2017-08-20T00:09:53.270Z,10.41
2017-08-20T00:10:53.264Z,10.41
2017-08-20T00:11:53.231Z,10.44
2017-08-20T00:12:52.903Z,10.35
2017-08-20T00:13:52.911Z,10.36
2017-08-20T00:14:52.572Z,10.38
2017-08-20T00:15:53.194Z,10.39
2017-08-20T00:16:53.207Z,10.33
2017-08-20T00:17:53.183Z,10.33
2017-08-20T00:18:52.853Z,10.39
2017-08-20T00:19:52.842Z,10.29
2017-08-20T00:20:53.153Z,10.32
2017-08-20T00:21:52.852Z,10.31
2017-08-20T00:22:53.138Z,10.32
2017-08-20T00:23:53.139Z,10.25
2017-08-20T00:24:52.495Z,10.21
2017-08-20T00:25:52.789Z,10.21
2017-08-20T00:26:53.105Z,10.23
2017-08-20T00:27:53.091Z,10.25
2017-08-20T00:28:52.772Z,10.21
2017-08-20T00:29:53.080Z,10.2
2017-08-20T00:30:52.425Z,10.15
2017-08-20T00:31:53.078Z,10.18
2017-08-20T00:32:53.053Z,10.14
2017-08-20T00:33:53.046Z,10.11
2017-08-20T00:34:53.068Z,10.03
2017-08-20T00:35:52.705Z,10.14
2017-08-20T00:36:53.015Z,10.05
2017-08-20T00:37:52.699Z,10.08
2017-08-20T00:38:52.688Z,10.05
2017-08-20T00:39:52.989Z,10.11
2017-08-20T00:40:52.980Z,10.07
2017-08-20T00:41:52.974Z,10.07
2017-08-20T00:42:52.962Z,10.02
2017-08-20T00:43:52.972Z,10.07
2017-08-20T00:44:52.956Z,10.1
2017-08-20T00:45:52.937Z,10.13
2017-08-20T00:46:52.629Z,10.11
2017-08-20T00:47:52.918Z,9.99
2017-08-20T00:48:52.913Z,9.96
2017-08-20T00:49:52.603Z,10.03
2017-08-20T00:50:52.569Z,10.05
2017-08-20T00:51:52.562Z,9.99
2017-08-20T00:52:52.555Z,9.99
2017-08-20T00:53:52.545Z,10.03
2017-08-20T00:54:52.860Z,10
2017-08-20T00:55:52.530Z,9.95
2017-08-20T00:56:52.838Z,9.9
2017-08-20T00:57:52.841Z,9.95
2017-08-20T00:58:52.818Z,9.9
2017-08-20T00:59:52.833Z,9.93
2017-08-20T01:00:52.484Z,9.93
2017-08-20T01:01:52.473Z,9.85
2017-08-20T01:02:52.812Z,9.85
2017-08-20T01:03:52.777Z,9.81
2017-08-20T01:04:52.133Z,9.85
2017-08-20T01:05:52.436Z,9.77
2017-08-20T01:06:52.772Z,9.81
2017-08-20T01:07:52.099Z,9.78
2017-08-20T01:08:52.419Z,9.88
2017-08-20T01:09:52.726Z,9.78
2017-08-20T01:10:52.712Z,9.77
2017-08-20T01:11:52.735Z,9.75
2017-08-20T01:12:52.696Z,9.75
2017-08-20T01:13:52.693Z,9.78
2017-08-20T01:14:52.699Z,9.78
2017-08-20T01:15:52.672Z,9.72
2017-08-20T01:16:52.663Z,9.74
2017-08-20T01:17:52.660Z,9.75
2017-08-20T01:18:52.326Z,9.77
2017-08-20T01:19:52.009Z,9.77
2017-08-20T01:20:52.313Z,9.8
2017-08-20T01:21:52.617Z,9.74
2017-08-20T01:22:52.286Z,9.78
2017-08-20T01:23:52.279Z,9.78
2017-08-20T01:24:52.586Z,9.75
2017-08-20T01:25:52.581Z,9.67
2017-08-20T01:26:52.573Z,9.7
2017-08-20T01:27:52.261Z,9.67
2017-08-20T01:28:52.554Z,9.67
2017-08-20T01:29:52.580Z,9.7
2017-08-20T01:30:52.556Z,9.71
2017-08-20T01:31:52.528Z,9.7
2017-08-20T01:32:52.193Z,9.67
2017-08-20T01:33:52.510Z,9.71
2017-08-20T01:34:52.178Z,9.71
2017-08-20T01:35:52.487Z,9.66
2017-08-20T01:36:52.479Z,9.63
2017-08-20T01:37:51.831Z,9.67
2017-08-20T01:38:52.472Z,9.75
2017-08-20T01:39:52.465Z,9.64
2017-08-20T01:40:52.452Z,9.67
2017-08-20T01:41:52.115Z,9.67
2017-08-20T01:42:52.425Z,9.7
2017-08-20T01:43:51.788Z,9.66
2017-08-20T01:44:52.086Z,9.74
2017-08-20T01:45:52.080Z,9.7
2017-08-20T01:46:52.083Z,9.72
2017-08-20T01:47:52.057Z,9.7
2017-08-20T01:48:52.374Z,9.66
2017-08-20T01:49:52.081Z,9.64
2017-08-20T01:50:52.350Z,9.74
2017-08-20T01:51:52.034Z,9.64
2017-08-20T01:52:52.334Z,9.7
2017-08-20T01:53:52.326Z,9.72
2017-08-20T01:54:51.992Z,9.72
2017-08-20T01:55:51.992Z,9.74
2017-08-20T01:56:52.301Z,9.75
2017-08-20T01:57:51.974Z,9.74
2017-08-20T01:58:52.280Z,9.81
2017-08-20T01:59:51.948Z,9.72
2017-08-20T02:00:52.273Z,9.72
2017-08-20T02:01:51.933Z,9.72
2017-08-20T02:02:52.245Z,9.78
2017-08-20T02:03:52.236Z,9.88
2017-08-20T02:04:52.261Z,9.81
2017-08-20T02:05:52.229Z,9.82
2017-08-20T02:06:51.887Z,9.8
2017-08-20T02:07:51.887Z,9.8
2017-08-20T02:08:52.188Z,9.81
2017-08-20T02:09:52.195Z,9.85
2017-08-20T02:10:51.856Z,9.77
2017-08-20T02:11:52.170Z,9.84
2017-08-20T02:12:51.827Z,9.75
2017-08-20T02:13:52.149Z,9.77
2017-08-20T02:14:51.812Z,9.74
2017-08-20T02:15:52.130Z,9.81
2017-08-20T02:16:52.122Z,9.77
2017-08-20T02:17:52.109Z,9.77
2017-08-20T02:18:51.793Z,9.81
2017-08-20T02:19:52.117Z,9.8
2017-08-20T02:20:52.095Z,9.74
2017-08-20T02:21:52.068Z,9.82
2017-08-20T02:22:51.738Z,9.8
2017-08-20T02:23:52.065Z,9.78
2017-08-20T02:24:52.041Z,9.74
2017-08-20T02:25:52.033Z,9.75
2017-08-20T02:26:51.702Z,9.77
2017-08-20T02:27:52.014Z,9.75
2017-08-20T02:28:52.021Z,9.75
2017-08-20T02:29:51.680Z,9.77
2017-08-20T02:30:51.995Z,9.77
2017-08-20T02:31:52.000Z,9.75
2017-08-20T02:32:51.329Z,9.72
2017-08-20T02:33:51.987Z,9.64
2017-08-20T02:34:51.632Z,9.74
2017-08-20T02:35:51.963Z,9.7
2017-08-20T02:36:51.618Z,9.71
2017-08-20T02:37:51.634Z,9.7
2017-08-20T02:38:51.591Z,9.67
2017-08-20T02:39:51.583Z,9.66
2017-08-20T02:40:51.897Z,9.64
2017-08-20T02:41:51.585Z,9.55
2017-08-20T02:42:51.896Z,9.63
2017-08-20T02:43:51.563Z,9.62
2017-08-20T02:44:51.861Z,9.59
2017-08-20T02:45:51.869Z,9.56
2017-08-20T02:46:51.546Z,9.63
2017-08-20T02:47:51.520Z,9.63
2017-08-20T02:48:51.510Z,9.59
2017-08-20T02:49:51.522Z,9.71
2017-08-20T02:50:51.819Z,9.74
2017-08-20T02:51:51.812Z,9.81
2017-08-20T02:52:51.789Z,9.99
2017-08-20T02:53:51.795Z,9.92
2017-08-20T02:54:51.778Z,10.08
2017-08-20T02:55:51.141Z,10.11
2017-08-20T02:56:51.750Z,9.96
2017-08-20T02:57:51.748Z,10.08
2017-08-20T02:58:51.734Z,10.1
2017-08-20T02:59:51.723Z,10
2017-08-20T03:00:51.401Z,9.99
2017-08-20T03:01:51.384Z,10.07
2017-08-20T03:02:51.694Z,10.03
2017-08-20T03:03:51.043Z,10.13
2017-08-20T03:04:51.741Z,10.07
2017-08-20T03:05:51.668Z,10.1
2017-08-20T03:06:51.660Z,9.99
2017-08-20T03:07:51.656Z,10.02
2017-08-20T03:08:51.640Z,10
2017-08-20T03:09:51.631Z,10.1
2017-08-20T03:10:51.653Z,10.08
2017-08-20T03:11:51.615Z,10.03
2017-08-20T03:12:50.991Z,10.11
2017-08-20T03:13:51.278Z,10.17
2017-08-20T03:14:51.266Z,10.26
2017-08-20T03:15:51.594Z,10.23
2017-08-20T03:16:51.249Z,10.31
2017-08-20T03:17:51.237Z,10.26
2017-08-20T03:18:51.231Z,10.33
2017-08-20T03:19:50.898Z,10.33
2017-08-20T03:20:51.532Z,10.36
2017-08-20T03:21:51.524Z,10.46
2017-08-20T03:22:51.516Z,10.49
2017-08-20T03:23:51.184Z,10.52
2017-08-20T03:24:51.176Z,10.52
2017-08-20T03:25:51.168Z,10.55
2017-08-20T03:26:51.476Z,10.72
2017-08-20T03:27:51.167Z,10.66
2017-08-20T03:28:50.829Z,10.75
2017-08-20T03:29:51.149Z,10.84
2017-08-20T03:30:51.448Z,10.91
2017-08-20T03:31:51.117Z,10.9
2017-08-20T03:32:51.448Z,10.94
2017-08-20T03:33:51.121Z,10.97
2017-08-20T03:34:51.407Z,11.02
2017-08-20T03:35:51.409Z,11.05
2017-08-20T03:36:51.411Z,11.05
2017-08-20T03:37:51.397Z,11.13
2017-08-20T03:38:51.371Z,11.09
2017-08-20T03:39:51.371Z,11.1
2017-08-20T03:40:51.359Z,11.1
2017-08-20T03:41:51.032Z,11.21
2017-08-20T03:42:51.038Z,11.33
2017-08-20T03:43:51.341Z,11.31
2017-08-20T03:44:51.324Z,11.26
2017-08-20T03:45:51.318Z,11.33
2017-08-20T03:46:50.984Z,11.38
2017-08-20T03:47:51.312Z,11.33
2017-08-20T03:48:50.972Z,11.34
2017-08-20T03:49:51.280Z,11.38
2017-08-20T03:50:51.273Z,11.35
2017-08-20T03:51:50.947Z,11.38
2017-08-20T03:52:50.939Z,11.42
2017-08-20T03:53:51.252Z,11.43
2017-08-20T03:54:51.240Z,11.35
2017-08-20T03:55:51.237Z,11.51
2017-08-20T03:56:51.221Z,11.49
2017-08-20T03:57:50.571Z,11.33
2017-08-20T03:58:51.223Z,11.39
2017-08-20T03:59:51.203Z,11.27
2017-08-20T04:00:50.890Z,11.33
2017-08-20T04:01:50.544Z,11.2
2017-08-20T04:02:51.174Z,11.23
2017-08-20T04:03:51.163Z,11.16
2017-08-20T04:04:51.157Z,11.13
2017-08-20T04:05:51.147Z,11.13
2017-08-20T04:06:50.823Z,11.13
2017-08-20T04:07:50.491Z,11.13
2017-08-20T04:08:51.124Z,11.12
2017-08-20T04:09:50.795Z,11.1
2017-08-20T04:10:51.136Z,11.09
2017-08-20T04:11:51.108Z,11.1
2017-08-20T04:12:50.799Z,11.13
2017-08-20T04:13:51.097Z,11.28
2017-08-20T04:14:51.082Z,11.21
2017-08-20T04:15:51.063Z,11.21
2017-08-20T04:16:50.417Z,11.21
2017-08-20T04:17:51.053Z,11.21
2017-08-20T04:18:50.724Z,11.23
2017-08-20T04:19:50.723Z,11.15
2017-08-20T04:20:51.035Z,11.26
2017-08-20T04:21:51.022Z,11.24
2017-08-20T04:22:50.694Z,11.21
2017-08-20T04:23:51.010Z,11.26
2017-08-20T04:24:50.998Z,11.28
2017-08-20T04:25:50.669Z,11.31
2017-08-20T04:26:51.015Z,11.24
2017-08-20T04:27:50.971Z,11.26
2017-08-20T04:28:50.961Z,11.21
2017-08-20T04:29:50.976Z,11.23
2017-08-20T04:30:50.626Z,11.31
2017-08-20T04:31:50.960Z,11.28
2017-08-20T04:32:50.612Z,11.24
2017-08-20T04:33:50.925Z,11.24
2017-08-20T04:34:50.607Z,11.13
2017-08-20T04:35:50.912Z,11.13
2017-08-20T04:36:50.914Z,11.12
2017-08-20T04:37:50.579Z,11.12
2017-08-20T04:38:50.571Z,11.21
2017-08-20T04:39:50.898Z,11.21
2017-08-20T04:40:50.868Z,11.26
2017-08-20T04:41:50.540Z,11.27
2017-08-20T04:42:50.853Z,11.38
2017-08-20T04:43:50.842Z,11.31
2017-08-20T04:44:50.533Z,11.42
2017-08-20T04:45:50.516Z,11.45
2017-08-20T04:46:50.821Z,11.59
2017-08-20T04:47:50.809Z,11.57
2017-08-20T04:48:50.806Z,11.66
2017-08-20T04:49:50.794Z,11.66
2017-08-20T04:50:50.468Z,11.81
2017-08-20T04:51:50.794Z,11.94
2017-08-20T04:52:50.777Z,12.01
2017-08-20T04:53:50.781Z,11.98
2017-08-20T04:54:50.437Z,12.04
2017-08-20T04:55:50.446Z,12.07
2017-08-20T04:56:50.420Z,12.19
2017-08-20T04:57:50.742Z,12.16
2017-08-20T04:58:50.411Z,12.2
2017-08-20T04:59:50.718Z,12.29
2017-08-20T05:00:50.447Z,12.28
2017-08-20T05:01:50.382Z,12.29
2017-08-20T05:02:50.699Z,12.28
2017-08-20T05:03:50.690Z,12.45
2017-08-20T05:04:50.689Z,12.45
2017-08-20T05:05:50.035Z,12.43
2017-08-20T05:06:50.665Z,12.52
2017-08-20T05:07:50.353Z,12.47
2017-08-20T05:08:50.333Z,12.61
2017-08-20T05:09:50.363Z,12.65
2017-08-20T05:10:50.635Z,12.74
2017-08-20T05:11:50.311Z,12.74
2017-08-20T05:12:50.303Z,12.76
2017-08-20T05:13:50.637Z,12.81
2017-08-20T05:14:50.291Z,12.89
2017-08-20T05:15:50.286Z,12.88
2017-08-20T05:16:50.609Z,12.91
2017-08-20T05:17:50.591Z,12.95
2017-08-20T05:18:49.939Z,12.95
2017-08-20T05:19:50.260Z,12.98
2017-08-20T05:20:50.267Z,12.94
2017-08-20T05:21:50.572Z,12.92
2017-08-20T05:22:50.551Z,12.98
2017-08-20T05:23:50.542Z,12.95
2017-08-20T05:24:50.541Z,13.09
2017-08-20T05:25:50.236Z,12.98
2017-08-20T05:26:50.529Z,13.02
2017-08-20T05:27:50.200Z,12.96
2017-08-20T05:28:50.524Z,12.96
2017-08-20T05:29:50.500Z,12.92
2017-08-20T05:30:50.175Z,12.98
2017-08-20T05:31:50.501Z,12.94
2017-08-20T05:32:50.480Z,12.95
2017-08-20T05:33:50.166Z,12.95
2017-08-20T05:34:50.469Z,13.1
2017-08-20T05:35:50.478Z,13.07
2017-08-20T05:36:50.177Z,13.17
2017-08-20T05:37:50.466Z,13.17
2017-08-20T05:38:50.447Z,13.24
2017-08-20T05:39:50.432Z,13.27
2017-08-20T05:40:50.126Z,13.31
2017-08-20T05:41:50.419Z,13.29
2017-08-20T05:42:50.423Z,13.31
2017-08-20T05:43:50.407Z,13.36
2017-08-20T05:44:50.108Z,13.42
2017-08-20T05:45:50.399Z,13.5
2017-08-20T05:46:50.068Z,13.45
2017-08-20T05:47:49.741Z,13.45
2017-08-20T05:48:50.057Z,13.5
2017-08-20T05:49:50.373Z,13.42
2017-08-20T05:50:50.366Z,13.5
2017-08-20T05:51:50.358Z,13.53
2017-08-20T05:52:50.351Z,13.54
2017-08-20T05:53:50.343Z,13.53
2017-08-20T05:54:50.013Z,13.53
2017-08-20T05:55:50.024Z,13.53
2017-08-20T05:56:50.325Z,13.51
2017-08-20T05:57:49.999Z,13.45
2017-08-20T05:58:50.308Z,13.5
2017-08-20T05:59:49.986Z,13.45
2017-08-20T06:00:50.297Z,13.5
2017-08-20T06:01:49.971Z,13.42
2017-08-20T06:02:49.976Z,13.5
2017-08-20T06:03:49.955Z,13.51
2017-08-20T06:04:49.971Z,13.44
2017-08-20T06:05:50.271Z,13.5
2017-08-20T06:06:49.936Z,13.54
2017-08-20T06:07:49.929Z,13.58
2017-08-20T06:08:50.315Z,13.69
2017-08-20T06:09:49.916Z,13.69
2017-08-20T06:10:50.235Z,13.63
2017-08-20T06:11:50.224Z,13.68
2017-08-20T06:12:49.897Z,13.75
2017-08-20T06:13:50.216Z,13.7
2017-08-20T06:14:49.886Z,13.53
2017-08-20T06:15:49.889Z,13.48
2017-08-20T06:16:49.882Z,13.42
2017-08-20T06:17:50.190Z,13.37
2017-08-20T06:18:49.562Z,13.28
2017-08-20T06:19:49.865Z,13.24
2017-08-20T06:20:50.176Z,13.21
2017-08-20T06:21:49.886Z,13.1
2017-08-20T06:22:50.162Z,13.09
2017-08-20T06:23:50.174Z,13.02
2017-08-20T06:24:49.830Z,13.09
2017-08-20T06:25:50.136Z,12.94
2017-08-20T06:26:50.132Z,12.96
2017-08-20T06:27:49.804Z,12.94
2017-08-20T06:28:49.803Z,12.92
2017-08-20T06:29:50.123Z,12.92
2017-08-20T06:30:50.132Z,12.94
2017-08-20T06:31:50.144Z,13.06
2017-08-20T06:32:49.779Z,13.25
2017-08-20T06:33:49.773Z,13.29
2017-08-20T06:34:50.127Z,13.47
2017-08-20T06:35:49.756Z,13.7
2017-08-20T06:36:50.080Z,13.9
2017-08-20T06:37:49.745Z,14.3
2017-08-20T06:38:50.074Z,14.46
2017-08-20T06:39:50.052Z,14.86
2017-08-20T06:40:49.729Z,15.02
2017-08-20T06:41:49.754Z,15.08
2017-08-20T06:42:50.057Z,15.25
2017-08-20T06:43:50.050Z,15.25
2017-08-20T06:44:49.702Z,15.38
2017-08-20T06:45:50.032Z,15.3
2017-08-20T06:46:49.688Z,15.41
2017-08-20T06:47:50.027Z,15.49
2017-08-20T06:48:49.706Z,15.59
2017-08-20T06:49:50.004Z,15.52
2017-08-20T06:50:49.989Z,15.53
2017-08-20T06:51:49.693Z,15.65
2017-08-20T06:52:49.991Z,15.68
2017-08-20T06:53:49.977Z,15.73
2017-08-20T06:54:49.986Z,15.74
2017-08-20T06:55:49.643Z,15.84
2017-08-20T06:56:49.661Z,15.89
2017-08-20T06:57:49.951Z,15.93
2017-08-20T06:58:49.951Z,15.93
2017-08-20T06:59:49.304Z,15.83
2017-08-20T07:00:49.638Z,15.84
2017-08-20T07:01:49.624Z,15.91
2017-08-20T07:02:49.939Z,15.7
2017-08-20T07:03:49.939Z,15.77
2017-08-20T07:04:49.602Z,15.75
2017-08-20T07:05:49.592Z,15.73
2017-08-20T07:06:49.941Z,15.7
2017-08-20T07:07:49.914Z,15.75
2017-08-20T07:08:49.258Z,15.73
2017-08-20T07:09:49.903Z,15.8
2017-08-20T07:10:49.926Z,15.8
2017-08-20T07:11:49.244Z,15.91
2017-08-20T07:12:49.568Z,16.02
2017-08-20T07:13:49.570Z,16.21
2017-08-20T07:14:49.246Z,16.32
2017-08-20T07:15:49.868Z,16.3
2017-08-20T07:16:49.542Z,16.37
2017-08-20T07:17:49.860Z,16.32
2017-08-20T07:18:49.528Z,16.39
2017-08-20T07:19:49.531Z,16.32
2017-08-20T07:20:49.553Z,16.29
2017-08-20T07:21:49.517Z,16.3
2017-08-20T07:22:49.535Z,16.29
2017-08-20T07:23:49.517Z,16.37
2017-08-20T07:24:49.840Z,16.49
2017-08-20T07:25:49.824Z,16.63
2017-08-20T07:26:49.513Z,16.95
2017-08-20T07:27:49.814Z,17.18
2017-08-20T07:28:49.490Z,17.58
2017-08-20T07:29:49.815Z,18.19
2017-08-20T07:30:49.820Z,19.06
2017-08-20T07:31:49.484Z,19.92
2017-08-20T07:32:49.475Z,20.66
2017-08-20T07:33:49.791Z,21.31
2017-08-20T07:34:49.474Z,21.31
2017-08-20T07:35:49.783Z,21.74
2017-08-20T07:36:49.789Z,22.24
2017-08-20T07:37:49.458Z,22.79
2017-08-20T07:38:49.791Z,23.32
2017-08-20T07:39:49.776Z,23.7
2017-08-20T07:40:49.444Z,24.14
2017-08-20T07:41:49.778Z,24.37
2017-08-20T07:42:49.764Z,24.69
2017-08-20T07:43:49.461Z,24.63
2017-08-20T07:44:49.439Z,24.58
2017-08-20T07:45:49.768Z,24.4
2017-08-20T07:46:49.122Z,24.08
2017-08-20T07:47:49.754Z,23.82
2017-08-20T07:48:49.763Z,23.47
2017-08-20T07:49:49.426Z,23.26
2017-08-20T07:50:49.743Z,22.76
2017-08-20T07:51:49.423Z,22.26
2017-08-20T07:52:49.419Z,21.74
2017-08-20T07:53:49.416Z,21.23
2017-08-20T07:54:49.753Z,20.86
2017-08-20T07:55:49.409Z,20.64
2017-08-20T07:56:49.455Z,20.41
2017-08-20T07:57:49.093Z,20.07
2017-08-20T07:58:49.724Z,19.79
2017-08-20T07:59:49.403Z,19.49
2017-08-20T08:00:49.740Z,19.28
2017-08-20T08:01:49.723Z,19.05
2017-08-20T08:02:49.402Z,18.76
2017-08-20T08:03:49.417Z,18.54
2017-08-20T08:04:49.714Z,18.2
2017-08-20T08:05:49.069Z,17.96
2017-08-20T08:06:49.722Z,17.46
2017-08-20T08:07:49.710Z,17.22
2017-08-20T08:08:49.065Z,17.02
2017-08-20T08:09:49.378Z,17.03
2017-08-20T08:10:49.380Z,17.18
2017-08-20T08:11:49.377Z,17.35
2017-08-20T08:12:49.371Z,17.47
2017-08-20T08:13:49.054Z,17.69
2017-08-20T08:14:49.388Z,17.98
2017-08-20T08:15:49.066Z,18.34
2017-08-20T08:16:49.367Z,18.36
2017-08-20T08:17:49.680Z,18.54
2017-08-20T08:18:49.676Z,18.66
2017-08-20T08:19:49.034Z,18.54
2017-08-20T08:20:49.385Z,18.47
2017-08-20T08:21:49.349Z,18.19
2017-08-20T08:22:49.666Z,17.84
2017-08-20T08:23:49.664Z,17.55
2017-08-20T08:24:49.663Z,17.24
2017-08-20T08:25:49.660Z,17.1
2017-08-20T08:26:49.667Z,16.94
2017-08-20T08:27:49.657Z,16.95
2017-08-20T08:28:49.007Z,16.84
2017-08-20T08:29:49.367Z,16.77
2017-08-20T08:30:49.648Z,16.57
2017-08-20T08:31:49.644Z,16.44
2017-08-20T08:32:49.655Z,16.57
2017-08-20T08:33:49.634Z,16.76
2017-08-20T08:34:49.670Z,16.91
2017-08-20T08:35:49.307Z,17.18
2017-08-20T08:36:49.306Z,17.45
2017-08-20T08:37:49.303Z,17.71
2017-08-20T08:38:49.621Z,17.99
2017-08-20T08:39:48.973Z,18.19
2017-08-20T08:40:48.972Z,18.27
2017-08-20T08:41:49.629Z,18.44
2017-08-20T08:42:49.300Z,18.45
2017-08-20T08:43:49.286Z,18.57
2017-08-20T08:44:49.282Z,18.72
2017-08-20T08:45:49.640Z,18.69
2017-08-20T08:46:49.295Z,18.59
2017-08-20T08:47:49.272Z,18.53
2017-08-20T08:48:49.596Z,18.54
2017-08-20T08:49:49.279Z,18.54
2017-08-20T08:50:49.587Z,18.5
2017-08-20T08:51:49.624Z,18.68
2017-08-20T08:52:49.580Z,18.84
2017-08-20T08:53:49.274Z,19.05
2017-08-20T08:54:49.277Z,19.3
2017-08-20T08:55:49.588Z,19.56
2017-08-20T08:56:49.568Z,19.61
2017-08-20T08:57:49.596Z,19.87
2017-08-20T08:58:49.568Z,19.95
2017-08-20T08:59:49.585Z,19.98
2017-08-20T09:00:49.603Z,20
2017-08-20T09:01:49.251Z,20.02
2017-08-20T09:02:49.559Z,19.9
2017-08-20T09:03:49.239Z,19.56
2017-08-20T09:04:49.257Z,19.25
2017-08-20T09:05:49.230Z,19
2017-08-20T09:06:48.922Z,18.71
2017-08-20T09:07:49.550Z,18.44
2017-08-20T09:08:49.547Z,18.21
2017-08-20T09:09:49.234Z,18.01
2017-08-20T09:10:49.264Z,17.8
2017-08-20T09:11:49.229Z,17.54
2017-08-20T09:12:49.225Z,17.57
2017-08-20T09:13:49.560Z,17.47
2017-08-20T09:14:49.536Z,17.52
2017-08-20T09:15:49.534Z,17.57
2017-08-20T09:16:49.526Z,17.84
2017-08-20T09:17:49.528Z,17.8
2017-08-20T09:18:49.529Z,17.96
2017-08-20T09:19:49.572Z,18.2
2017-08-20T09:20:49.564Z,18.47
2017-08-20T09:21:49.202Z,18.78
2017-08-20T09:22:49.515Z,19.09
2017-08-20T09:23:49.208Z,19.4
2017-08-20T09:24:48.869Z,19.63
2017-08-20T09:25:49.185Z,20
2017-08-20T09:26:49.506Z,20.19
2017-08-20T09:27:49.187Z,20.25
2017-08-20T09:28:49.203Z,20.42
2017-08-20T09:29:49.187Z,20.67
2017-08-20T09:30:49.179Z,20.67
2017-08-20T09:31:49.506Z,20.9
2017-08-20T09:32:49.520Z,20.93
2017-08-20T09:33:49.175Z,20.98
2017-08-20T09:34:49.504Z,21.12
2017-08-20T09:35:49.511Z,21.19
2017-08-20T09:36:49.492Z,21.16
2017-08-20T09:37:49.506Z,21.06
2017-08-20T09:38:49.171Z,21.03
2017-08-20T09:39:49.169Z,20.98
2017-08-20T09:40:49.484Z,20.97
2017-08-20T09:41:49.487Z,20.9
2017-08-20T09:42:49.491Z,20.63
2017-08-20T09:43:48.844Z,20.37
2017-08-20T09:44:49.175Z,20.18
2017-08-20T09:45:49.170Z,20.1
2017-08-20T09:46:49.161Z,20.04
2017-08-20T09:47:49.498Z,19.89
2017-08-20T09:48:49.488Z,19.82
2017-08-20T09:49:49.478Z,19.78
2017-08-20T09:50:49.497Z,19.7
2017-08-20T09:51:49.156Z,19.93
2017-08-20T09:52:49.494Z,20.04
2017-08-20T09:53:49.148Z,20.41
2017-08-20T09:54:49.487Z,20.58
2017-08-20T09:55:49.182Z,20.56
2017-08-20T09:56:49.470Z,20.37
2017-08-20T09:57:49.469Z,20.27
2017-08-20T09:58:49.487Z,20.18
2017-08-20T09:59:49.484Z,20.07
2017-08-20T10:00:49.465Z,19.95
2017-08-20T10:01:49.472Z,19.82
2017-08-20T10:02:49.170Z,19.67
2017-08-20T10:03:49.143Z,19.46
2017-08-20T10:04:48.839Z,19.49
2017-08-20T10:05:49.140Z,19.35
2017-08-20T10:06:49.474Z,19.2
2017-08-20T10:07:49.456Z,19.12
2017-08-20T10:08:49.471Z,19
2017-08-20T10:09:48.816Z,18.99
2017-08-20T10:10:49.458Z,18.97
2017-08-20T10:11:49.131Z,18.75
2017-08-20T10:12:49.455Z,18.69
2017-08-20T10:13:49.128Z,18.5
2017-08-20T10:14:49.129Z,18.54
2017-08-20T10:15:49.450Z,18.47
2017-08-20T10:16:49.144Z,18.38
2017-08-20T10:17:49.445Z,18.26
2017-08-20T10:18:49.120Z,18.31
2017-08-20T10:19:49.477Z,18.27
2017-08-20T10:20:49.444Z,18.17
2017-08-20T10:21:49.121Z,18.01
2017-08-20T10:22:49.453Z,18.02
2017-08-20T10:23:49.440Z,17.96
2017-08-20T10:24:49.449Z,17.88
2017-08-20T10:25:49.123Z,17.92
2017-08-20T10:26:49.108Z,18.17
2017-08-20T10:27:49.428Z,18.36
2017-08-20T10:28:49.424Z,18.63
2017-08-20T10:29:48.786Z,19.05
2017-08-20T10:30:49.416Z,19.24
2017-08-20T10:31:49.099Z,19.47
2017-08-20T10:32:49.419Z,19.78
2017-08-20T10:33:49.092Z,19.71
2017-08-20T10:34:49.423Z,19.7
2017-08-20T10:35:49.414Z,19.68
2017-08-20T10:36:49.412Z,19.72
2017-08-20T10:37:48.776Z,19.63
2017-08-20T10:38:49.425Z,19.6
2017-08-20T10:39:48.763Z,19.47
2017-08-20T10:40:49.090Z,19.55
2017-08-20T10:41:49.081Z,19.46
2017-08-20T10:42:49.403Z,19.4
2017-08-20T10:43:49.076Z,19.46
2017-08-20T10:44:49.078Z,19.35
2017-08-20T10:45:49.403Z,19.28
2017-08-20T10:46:48.750Z,19.24
2017-08-20T10:47:48.746Z,19.17
2017-08-20T10:48:49.404Z,18.99
2017-08-20T10:49:49.074Z,18.82
2017-08-20T10:50:49.387Z,18.75
2017-08-20T10:51:49.403Z,18.51
2017-08-20T10:52:48.742Z,18.42
2017-08-20T10:53:49.082Z,18.34
2017-08-20T10:54:49.384Z,18.29
2017-08-20T10:55:49.071Z,18.2
2017-08-20T10:56:49.383Z,18.2
2017-08-20T10:57:49.377Z,18.06
2017-08-20T10:58:49.069Z,17.94
2017-08-20T10:59:49.392Z,17.94
2017-08-20T11:00:49.044Z,17.83
2017-08-20T11:01:49.060Z,17.68
2017-08-20T11:02:49.047Z,17.68
2017-08-20T11:03:49.361Z,17.6
2017-08-20T11:04:49.055Z,17.5
2017-08-20T11:05:49.355Z,17.54
2017-08-20T11:06:49.046Z,17.54
2017-08-20T11:07:49.349Z,17.43
2017-08-20T11:08:48.714Z,17.46
2017-08-20T11:09:49.349Z,17.43
2017-08-20T11:10:49.350Z,17.46
2017-08-20T11:11:49.340Z,17.58
2017-08-20T11:12:49.346Z,17.5
2017-08-20T11:13:49.025Z,17.58
2017-08-20T11:14:49.333Z,17.57
2017-08-20T11:15:49.337Z,17.43
2017-08-20T11:16:49.327Z,17.32
2017-08-20T11:17:49.338Z,17.35
2017-08-20T11:18:48.995Z,17.35
2017-08-20T11:19:48.677Z,17.28
2017-08-20T11:20:49.317Z,17.18
2017-08-20T11:21:49.315Z,17.12
2017-08-20T11:22:49.308Z,16.92
2017-08-20T11:23:49.305Z,16.85
2017-08-20T11:24:49.304Z,16.74
2017-08-20T11:25:49.303Z,16.77
2017-08-20T11:26:49.293Z,16.63
2017-08-20T11:27:48.984Z,16.63
2017-08-20T11:28:48.974Z,16.49
2017-08-20T11:29:49.289Z,16.44
2017-08-20T11:30:48.977Z,16.45
2017-08-20T11:31:49.291Z,16.36
2017-08-20T11:32:48.958Z,16.42
2017-08-20T11:33:48.952Z,16.42
2017-08-20T11:34:49.291Z,16.33
2017-08-20T11:35:49.273Z,16.42
2017-08-20T11:36:49.266Z,16.51
2017-08-20T11:37:49.255Z,16.51
2017-08-20T11:38:49.268Z,16.58
2017-08-20T11:39:49.254Z,16.69
2017-08-20T11:40:48.927Z,16.66
2017-08-20T11:41:49.265Z,16.72
2017-08-20T11:42:49.242Z,16.81
2017-08-20T11:43:49.270Z,16.87
2017-08-20T11:44:48.913Z,16.88
2017-08-20T11:45:49.233Z,16.94
2017-08-20T11:46:49.237Z,16.99
2017-08-20T11:47:48.900Z,17.05
2017-08-20T11:48:49.221Z,17.02
2017-08-20T11:49:48.899Z,17.06
2017-08-20T11:50:49.237Z,17.05
2017-08-20T11:51:49.241Z,17.09
2017-08-20T11:52:48.897Z,17.15
2017-08-20T11:53:49.211Z,17.24
2017-08-20T11:54:49.201Z,17.39
2017-08-20T11:55:49.194Z,17.39
2017-08-20T11:56:48.870Z,17.47
2017-08-20T11:57:49.191Z,17.6
2017-08-20T11:58:49.190Z,17.69
2017-08-20T11:59:49.183Z,17.8
2017-08-20T12:00:49.211Z,17.99
2017-08-20T12:01:48.875Z,18.13
2017-08-20T12:02:48.861Z,18.27
2017-08-20T12:03:49.174Z,18.38
2017-08-20T12:04:48.846Z,18.51
2017-08-20T12:05:49.167Z,18.51
2017-08-20T12:06:49.169Z,18.59
2017-08-20T12:07:49.182Z,18.61
2017-08-20T12:08:49.178Z,18.72
2017-08-20T12:09:48.844Z,18.74
2017-08-20T12:10:48.836Z,18.76
2017-08-20T12:11:48.834Z,18.89
2017-08-20T12:12:49.150Z,18.94
2017-08-20T12:13:48.829Z,18.96
2017-08-20T12:14:49.100Z,19.05
2017-08-20T12:15:49.140Z,18.91
2017-08-20T12:16:48.827Z,18.74
2017-08-20T12:17:49.137Z,18.66
2017-08-20T12:18:48.820Z,18.66
2017-08-20T12:19:49.134Z,18.54
2017-08-20T12:20:48.811Z,18.45
2017-08-20T12:21:48.804Z,18.32
2017-08-20T12:22:48.809Z,18.23
2017-08-20T12:23:48.805Z,18.31
2017-08-20T12:24:49.123Z,18.39
2017-08-20T12:25:49.137Z,18.39
2017-08-20T12:26:48.804Z,18.44
2017-08-20T12:27:49.123Z,18.47
2017-08-20T12:28:49.114Z,18.47
2017-08-20T12:29:48.795Z,18.5
2017-08-20T12:30:49.135Z,18.45
2017-08-20T12:31:49.108Z,18.42
2017-08-20T12:32:48.783Z,18.44
2017-08-20T12:33:49.124Z,18.51
2017-08-20T12:34:48.782Z,18.51
2017-08-20T12:35:48.776Z,18.65
2017-08-20T12:36:48.774Z,18.51
2017-08-20T12:37:48.785Z,18.47
2017-08-20T12:38:49.095Z,18.35
2017-08-20T12:39:49.131Z,18.34
2017-08-20T12:40:48.543Z,18.27
2017-08-20T12:41:48.799Z,18.2
2017-08-20T12:42:48.458Z,18.2
2017-08-20T12:43:48.436Z,18.2
2017-08-20T12:44:48.783Z,18.26
2017-08-20T12:45:49.090Z,18.24
2017-08-20T12:46:49.077Z,18.29
2017-08-20T12:47:48.766Z,18.34
2017-08-20T12:48:48.754Z,18.45
2017-08-20T12:49:48.745Z,18.51
2017-08-20T12:50:49.088Z,18.5
2017-08-20T12:51:48.750Z,18.63
2017-08-20T12:52:49.083Z,18.61
2017-08-20T12:53:49.075Z,18.59
2017-08-20T12:54:49.062Z,18.5
2017-08-20T12:55:48.414Z,18.53
2017-08-20T12:56:48.729Z,18.57
2017-08-20T12:57:49.126Z,18.53
2017-08-20T12:58:48.792Z,18.53
2017-08-20T12:59:48.726Z,18.57
2017-08-20T13:00:49.050Z,18.53